»·PEaware :: N2442P KTPH-KRNO

N2442P :: KTPH-KRNO

FLIGHT INFORMATION

Flight Status: Arrived
Operator: Privately registered:
United States
More flights under this callsign
Pilot: Ken Q. (14290)
Aircraft: MOONEY M-20K/M ENCORE BRAVO
(M20T)
More flights by this aircraft type
Origin: KTPH Tonopah
United States
Destination: KRNO Reno/Tahoe Intl
United States
More flights between these airports :: More routes between these airports
Route: KTPH MVA FMG KRNO
File this flight plan on PilotEdge
Remarks: X
Altitude:
(Current/Filed)
10,500ft
Speed:
(Current/Filed)
175kts
Departed: 18-Nov-20 01:59 PM
Arrived: 18-Nov-20 02:56 PM
Distance/Time
Traveled:
152nm/0:57
Distance/Time
To Go:
Arrived

Flight Plot

Page will automatically refresh every two minutes.

Flight plan parsing failed; only flown route is shown


Map Options




Map Legend


Flown Route
Filed Route
Departure Airport
Arrival Airport
Navaid (VOR, NDB)
Fix

Horizontal Profiles

Position Reports

Time Latitude Longitude Heading Altitude Ground
Speed
18-Nov-20 13:36 38.062992 -117.094581 257 5429ft 0kts
18-Nov-20 13:37 38.062992 -117.094581 257 5429ft 0kts
18-Nov-20 13:38 38.062992 -117.094581 257 5429ft 0kts
18-Nov-20 13:39 38.062992 -117.094581 257 5429ft 0kts
18-Nov-20 13:40 38.062992 -117.094581 257 5429ft 0kts
18-Nov-20 13:41 38.062992 -117.094581 257 5429ft 0kts
18-Nov-20 13:42 38.062992 -117.094581 257 5429ft 0kts
18-Nov-20 13:43 38.062992 -117.094581 257 5429ft 0kts
18-Nov-20 13:44 38.062992 -117.094581 257 5429ft 0kts
18-Nov-20 13:45 38.062992 -117.094581 257 5429ft 0kts
18-Nov-20 13:46 38.062992 -117.094581 257 5429ft 0kts
18-Nov-20 13:47 38.062992 -117.094581 257 5429ft 0kts
18-Nov-20 13:48 38.062992 -117.094581 257 5429ft 0kts
18-Nov-20 13:49 38.062991 -117.094582 257 5429ft 0kts
18-Nov-20 13:50 38.062991 -117.094584 257 5429ft 0kts
18-Nov-20 13:51 38.062991 -117.094586 257 5429ft 0kts
18-Nov-20 13:52 38.062991 -117.094588 257 5429ft 0kts
18-Nov-20 13:53 38.064220 -117.094908 353 5429ft 7kts
18-Nov-20 13:54 38.066106 -117.094316 353 5429ft 13kts
18-Nov-20 13:55 38.067285 -117.093446 76 5429ft 0kts
18-Nov-20 13:56 38.067286 -117.093442 76 5429ft 0kts
18-Nov-20 13:57 38.067187 -117.092600 162 5429ft 8kts
18-Nov-20 13:58 38.048995 -117.086479 169 5760ft 87kts
18-Nov-20 13:59 38.048314 -117.109924 313 6272ft 147kts
18-Nov-20 14:00 38.070466 -117.153984 288 7000ft 147kts
18-Nov-20 14:01 38.088869 -117.199696 296 7896ft 145kts
18-Nov-20 14:02 38.122100 -117.229724 327 8826ft 147kts
18-Nov-20 14:03 38.150789 -117.264947 308 9724ft 140kts
18-Nov-20 14:04 38.176157 -117.301899 302 10480ft 144kts
18-Nov-20 14:05 38.203713 -117.347555 299 10508ft 174kts
18-Nov-20 14:06 38.233111 -117.398947 299 10504ft 181kts
18-Nov-20 14:07 38.261085 -117.452511 296 10499ft 180kts
18-Nov-20 14:08 38.288062 -117.506073 296 10503ft 178kts
18-Nov-20 14:09 38.314783 -117.559006 296 10498ft 176kts
18-Nov-20 14:10 38.341189 -117.611354 296 10501ft 175kts
18-Nov-20 14:11 38.367677 -117.663898 296 10489ft 175kts
18-Nov-20 14:12 38.395003 -117.715586 298 10491ft 175kts
18-Nov-20 14:13 38.422958 -117.766882 298 10494ft 176kts
18-Nov-20 14:14 38.451061 -117.818487 298 10490ft 176kts
18-Nov-20 14:15 38.479032 -117.869823 298 10491ft 175kts
18-Nov-20 14:16 38.506913 -117.921047 298 10497ft 175kts
18-Nov-20 14:17 38.534933 -117.972662 298 10492ft 176kts
18-Nov-20 14:18 38.563819 -118.023285 300 10498ft 176kts
18-Nov-20 14:20 38.595287 -118.071698 303 10498ft 177kts
18-Nov-20 14:21 38.625895 -118.120949 301 10498ft 176kts
18-Nov-20 14:22 38.656333 -118.170217 303 10498ft 176kts
18-Nov-20 14:23 38.686426 -118.219696 300 10498ft 176kts
18-Nov-20 14:24 38.716650 -118.269441 300 10501ft 176kts
18-Nov-20 14:25 38.746841 -118.319120 300 10504ft 177kts
18-Nov-20 14:26 38.777579 -118.369440 300 10498ft 178kts
18-Nov-20 14:27 38.808189 -118.419430 299 10497ft 177kts
18-Nov-20 14:28 38.837950 -118.469651 299 10501ft 177kts
18-Nov-20 14:29 38.867944 -118.520374 299 10496ft 177kts
18-Nov-20 14:30 38.897876 -118.570549 299 10494ft 176kts
18-Nov-20 14:31 38.927795 -118.620614 299 10494ft 176kts
18-Nov-20 14:32 38.957830 -118.670863 299 10498ft 176kts
18-Nov-20 14:33 38.987858 -118.720824 299 10503ft 176kts
18-Nov-20 14:34 39.017926 -118.770572 299 10504ft 176kts
18-Nov-20 14:35 39.048085 -118.820529 296 10504ft 175kts
18-Nov-20 14:36 39.073644 -118.873393 297 10504ft 175kts
18-Nov-20 14:37 39.102471 -118.924128 297 10508ft 176kts
18-Nov-20 14:38 39.131550 -118.975254 296 10505ft 176kts
18-Nov-20 14:38 39.155186 -119.018085 296 10507ft 175kts
18-Nov-20 14:39 39.183399 -119.069240 296 10509ft 175kts
18-Nov-20 14:41 39.216386 -119.128954 296 10467ft 173kts
18-Nov-20 14:41 39.239782 -119.171859 296 10047ft 175kts
18-Nov-20 14:43 39.271334 -119.232818 296 9466ft 175kts
18-Nov-20 14:43 39.293171 -119.277236 296 9048ft 175kts
18-Nov-20 14:44 39.316736 -119.328354 293 8562ft 163kts
18-Nov-20 14:45 39.335634 -119.372655 293 8383ft 158kts
18-Nov-20 14:46 39.355715 -119.426106 289 8027ft 163kts
18-Nov-20 14:47 39.374629 -119.478515 289 8019ft 158kts
18-Nov-20 14:48 39.389897 -119.524328 292 7987ft 159kts
18-Nov-20 14:49 39.412438 -119.576489 298 7536ft 165kts
18-Nov-20 14:50 39.436807 -119.620189 305 7464ft 140kts
18-Nov-20 14:51 39.462732 -119.663137 306 7014ft 153kts
18-Nov-20 14:52 39.488305 -119.701280 301 6235ft 124kts
18-Nov-20 14:53 39.496283 -119.733402 267 5167ft 78kts
18-Nov-20 14:54 39.496234 -119.760553 266 4431ft 57kts
18-Nov-20 14:55 39.496329 -119.770168 287 4418ft 8kts
18-Nov-20 14:56 39.497346 -119.769846 89 4418ft 11kts
18-Nov-20 14:57 39.498559 -119.765765 347 4418ft 7kts
18-Nov-20 14:58 39.501292 -119.765258 16 4418ft 4kts
18-Nov-20 14:59 39.501719 -119.764927 81 4418ft 0kts
18-Nov-20 15:00 39.501719 -119.764927 81 4418ft 0kts

Navigation Log

Ident Type
Flight plan parsing failed, navigation log unavailable